Aviation Digital Data Service (ADDS)

Output produced by METARs form (1744 UTC 31 August 2015)
found at http://www.aviationweather.gov/adds/metars/
 
KLGA 311721Z 3118/0118 25011KT P6SM SCT140 BKN250 
     FM010100 29007KT P6SM SCT250 
     FM011000 03005KT P6SM SCT250 
     FM011300 04007KT P6SM FEW050